sensor_id;sensor_type;location;lat;lon;timestamp;P1;durP1;ratioP1;P2;durP2;ratioP2
16977;SDS011;8605;52.548;4.918;2023-07-09T00:04:01;14.30;;;9.27;;
16977;SDS011;8605;52.548;4.918;2023-07-09T00:09:04;15.15;;;9.02;;
16977;SDS011;8605;52.548;4.918;2023-07-09T00:14:07;14.27;;;9.25;;
16977;SDS011;8605;52.548;4.918;2023-07-09T00:19:13;12.13;;;8.33;;
16977;SDS011;8605;52.548;4.918;2023-07-09T00:24:18;12.57;;;8.98;;
16977;SDS011;8605;52.548;4.918;2023-07-09T00:29:21;13.32;;;9.00;;
16977;SDS011;8605;52.548;4.918;2023-07-09T00:34:25;12.90;;;9.00;;
16977;SDS011;8605;52.548;4.918;2023-07-09T00:39:28;12.63;;;9.50;;
16977;SDS011;8605;52.548;4.918;2023-07-09T00:44:31;14.20;;;9.10;;
16977;SDS011;8605;52.548;4.918;2023-07-09T00:49:36;12.15;;;9.05;;
16977;SDS011;8605;52.548;4.918;2023-07-09T00:54:43;13.70;;;9.25;;
16977;SDS011;8605;52.548;4.918;2023-07-09T00:59:50;13.03;;;8.43;;
16977;SDS011;8605;52.548;4.918;2023-07-09T01:04:57;13.38;;;8.52;;
16977;SDS011;8605;52.548;4.918;2023-07-09T01:10:04;12.87;;;7.93;;
16977;SDS011;8605;52.548;4.918;2023-07-09T01:15:07;16.77;;;8.73;;
16977;SDS011;8605;52.548;4.918;2023-07-09T01:20:18;13.63;;;8.60;;
16977;SDS011;8605;52.548;4.918;2023-07-09T01:25:24;12.53;;;7.70;;
16977;SDS011;8605;52.548;4.918;2023-07-09T01:30:29;11.88;;;8.30;;
16977;SDS011;8605;52.548;4.918;2023-07-09T01:35:35;12.90;;;7.93;;
16977;SDS011;8605;52.548;4.918;2023-07-09T01:40:43;11.18;;;7.40;;
16977;SDS011;8605;52.548;4.918;2023-07-09T01:45:48;12.45;;;7.85;;
16977;SDS011;8605;52.548;4.918;2023-07-09T01:50:53;14.10;;;8.13;;
16977;SDS011;8605;52.548;4.918;2023-07-09T01:56:00;12.52;;;7.90;;
16977;SDS011;8605;52.548;4.918;2023-07-09T02:01:03;12.85;;;8.48;;
16977;SDS011;8605;52.548;4.918;2023-07-09T02:06:07;14.05;;;8.98;;
16977;SDS011;8605;52.548;4.918;2023-07-09T02:11:14;12.52;;;8.20;;
16977;SDS011;8605;52.548;4.918;2023-07-09T02:16:19;11.63;;;7.57;;
16977;SDS011;8605;52.548;4.918;2023-07-09T02:21:22;18.40;;;8.13;;
16977;SDS011;8605;52.548;4.918;2023-07-09T02:26:32;13.27;;;8.13;;
16977;SDS011;8605;52.548;4.918;2023-07-09T02:31:36;14.00;;;7.27;;
16977;SDS011;8605;52.548;4.918;2023-07-09T02:36:41;13.00;;;7.87;;
16977;SDS011;8605;52.548;4.918;2023-07-09T02:41:45;13.27;;;7.68;;
16977;SDS011;8605;52.548;4.918;2023-07-09T02:46:49;12.20;;;7.13;;
16977;SDS011;8605;52.548;4.918;2023-07-09T02:51:52;10.45;;;7.72;;
16977;SDS011;8605;52.548;4.918;2023-07-09T02:56:56;10.30;;;7.70;;
16977;SDS011;8605;52.548;4.918;2023-07-09T03:01:59;12.30;;;7.90;;
16977;SDS011;8605;52.548;4.918;2023-07-09T03:07:03;13.07;;;7.40;;
16977;SDS011;8605;52.548;4.918;2023-07-09T03:12:08;13.83;;;7.67;;
16977;SDS011;8605;52.548;4.918;2023-07-09T03:17:12;12.43;;;8.03;;
16977;SDS011;8605;52.548;4.918;2023-07-09T03:22:15;12.07;;;7.80;;
16977;SDS011;8605;52.548;4.918;2023-07-09T03:27:19;14.47;;;8.40;;
16977;SDS011;8605;52.548;4.918;2023-07-09T03:32:22;14.40;;;8.40;;
16977;SDS011;8605;52.548;4.918;2023-07-09T03:37:25;13.67;;;8.23;;
16977;SDS011;8605;52.548;4.918;2023-07-09T03:42:29;14.63;;;8.60;;
16977;SDS011;8605;52.548;4.918;2023-07-09T03:47:33;15.43;;;9.32;;
16977;SDS011;8605;52.548;4.918;2023-07-09T03:52:36;15.15;;;9.32;;
16977;SDS011;8605;52.548;4.918;2023-07-09T03:57:40;16.30;;;10.23;;
16977;SDS011;8605;52.548;4.918;2023-07-09T04:02:43;13.57;;;9.05;;
16977;SDS011;8605;52.548;4.918;2023-07-09T04:07:46;18.20;;;9.73;;
16977;SDS011;8605;52.548;4.918;2023-07-09T04:12:50;15.65;;;9.93;;
16977;SDS011;8605;52.548;4.918;2023-07-09T04:17:53;15.05;;;9.27;;
16977;SDS011;8605;52.548;4.918;2023-07-09T04:22:56;13.57;;;9.13;;
16977;SDS011;8605;52.548;4.918;2023-07-09T04:28:01;14.50;;;9.43;;
16977;SDS011;8605;52.548;4.918;2023-07-09T04:33:04;13.97;;;9.20;;
16977;SDS011;8605;52.548;4.918;2023-07-09T04:38:07;14.00;;;8.60;;
16977;SDS011;8605;52.548;4.918;2023-07-09T04:43:12;11.25;;;8.23;;
16977;SDS011;8605;52.548;4.918;2023-07-09T04:48:15;13.57;;;8.25;;
16977;SDS011;8605;52.548;4.918;2023-07-09T04:53:18;11.68;;;7.28;;
16977;SDS011;8605;52.548;4.918;2023-07-09T04:58:22;10.10;;;7.33;;
16977;SDS011;8605;52.548;4.918;2023-07-09T05:03:25;14.10;;;8.77;;
16977;SDS011;8605;52.548;4.918;2023-07-09T05:08:28;12.40;;;8.10;;
16977;SDS011;8605;52.548;4.918;2023-07-09T05:13:33;10.33;;;7.47;;
16977;SDS011;8605;52.548;4.918;2023-07-09T05:18:36;12.97;;;8.40;;
16977;SDS011;8605;52.548;4.918;2023-07-09T05:23:39;12.90;;;7.88;;
16977;SDS011;8605;52.548;4.918;2023-07-09T05:28:44;12.73;;;8.68;;
16977;SDS011;8605;52.548;4.918;2023-07-09T05:33:47;14.07;;;9.30;;
16977;SDS011;8605;52.548;4.918;2023-07-09T05:38:50;11.93;;;9.02;;
16977;SDS011;8605;52.548;4.918;2023-07-09T05:43:54;17.13;;;12.65;;
16977;SDS011;8605;52.548;4.918;2023-07-09T05:48:57;16.27;;;12.07;;
16977;SDS011;8605;52.548;4.918;2023-07-09T05:54:00;16.35;;;11.95;;
16977;SDS011;8605;52.548;4.918;2023-07-09T05:59:05;25.63;;;17.13;;
16977;SDS011;8605;52.548;4.918;2023-07-09T06:04:08;22.80;;;15.68;;
16977;SDS011;8605;52.548;4.918;2023-07-09T06:09:13;22.00;;;16.80;;
16977;SDS011;8605;52.548;4.918;2023-07-09T06:14:18;21.70;;;16.00;;
16977;SDS011;8605;52.548;4.918;2023-07-09T06:19:21;23.70;;;16.10;;
16977;SDS011;8605;52.548;4.918;2023-07-09T06:24:24;19.10;;;14.27;;
16977;SDS011;8605;52.548;4.918;2023-07-09T06:29:28;17.37;;;12.93;;
16977;SDS011;8605;52.548;4.918;2023-07-09T06:34:32;17.27;;;13.18;;
16977;SDS011;8605;52.548;4.918;2023-07-09T06:39:35;18.27;;;14.27;;
16977;SDS011;8605;52.548;4.918;2023-07-09T06:44:39;19.77;;;13.47;;
16977;SDS011;8605;52.548;4.918;2023-07-09T06:49:42;17.30;;;12.18;;
16977;SDS011;8605;52.548;4.918;2023-07-09T06:54:45;18.77;;;14.57;;
16977;SDS011;8605;52.548;4.918;2023-07-09T06:59:49;17.05;;;13.35;;
16977;SDS011;8605;52.548;4.918;2023-07-09T07:04:52;14.82;;;11.65;;
16977;SDS011;8605;52.548;4.918;2023-07-09T07:09:55;13.73;;;9.80;;
16977;SDS011;8605;52.548;4.918;2023-07-09T07:15:00;14.73;;;10.70;;
16977;SDS011;8605;52.548;4.918;2023-07-09T07:20:03;11.03;;;8.90;;
16977;SDS011;8605;52.548;4.918;2023-07-09T07:25:07;10.90;;;8.20;;
16977;SDS011;8605;52.548;4.918;2023-07-09T07:30:12;8.30;;;6.70;;
16977;SDS011;8605;52.548;4.918;2023-07-09T07:35:16;10.53;;;5.97;;
16977;SDS011;8605;52.548;4.918;2023-07-09T07:40:19;9.93;;;5.88;;
16977;SDS011;8605;52.548;4.918;2023-07-09T07:45:24;7.03;;;4.67;;
16977;SDS011;8605;52.548;4.918;2023-07-09T07:50:27;12.80;;;5.10;;
16977;SDS011;8605;52.548;4.918;2023-07-09T07:55:30;8.87;;;5.20;;
16977;SDS011;8605;52.548;4.918;2023-07-09T08:00:35;8.37;;;4.60;;
16977;SDS011;8605;52.548;4.918;2023-07-09T08:05:41;6.85;;;4.53;;
16977;SDS011;8605;52.548;4.918;2023-07-09T08:10:44;5.32;;;4.30;;
16977;SDS011;8605;52.548;4.918;2023-07-09T08:15:49;7.03;;;4.10;;
16977;SDS011;8605;52.548;4.918;2023-07-09T08:20:52;8.50;;;4.67;;
16977;SDS011;8605;52.548;4.918;2023-07-09T08:25:55;6.13;;;4.17;;
16977;SDS011;8605;52.548;4.918;2023-07-09T08:31:00;6.07;;;3.83;;
16977;SDS011;8605;52.548;4.918;2023-07-09T08:36:04;5.63;;;4.00;;
16977;SDS011;8605;52.548;4.918;2023-07-09T08:41:08;4.23;;;3.53;;
16977;SDS011;8605;52.548;4.918;2023-07-09T08:46:20;4.70;;;3.28;;
16977;SDS011;8605;52.548;4.918;2023-07-09T08:51:32;6.17;;;3.70;;
16977;SDS011;8605;52.548;4.918;2023-07-09T08:56:37;6.35;;;3.80;;
16977;SDS011;8605;52.548;4.918;2023-07-09T09:01:44;4.65;;;3.78;;
16977;SDS011;8605;52.548;4.918;2023-07-09T09:06:52;5.80;;;3.28;;
16977;SDS011;8605;52.548;4.918;2023-07-09T09:12:03;7.07;;;3.03;;
16977;SDS011;8605;52.548;4.918;2023-07-09T09:17:15;4.50;;;3.33;;
16977;SDS011;8605;52.548;4.918;2023-07-09T09:22:21;3.58;;;2.88;;
16977;SDS011;8605;52.548;4.918;2023-07-09T09:27:27;4.03;;;3.03;;
16977;SDS011;8605;52.548;4.918;2023-07-09T09:32:42;4.60;;;3.10;;
16977;SDS011;8605;52.548;4.918;2023-07-09T09:37:49;3.95;;;2.90;;
16977;SDS011;8605;52.548;4.918;2023-07-09T09:42:54;6.18;;;3.13;;
16977;SDS011;8605;52.548;4.918;2023-07-09T09:48:00;5.55;;;3.10;;
16977;SDS011;8605;52.548;4.918;2023-07-09T09:53:06;5.40;;;3.38;;
16977;SDS011;8605;52.548;4.918;2023-07-09T09:58:13;5.00;;;3.70;;
16977;SDS011;8605;52.548;4.918;2023-07-09T10:03:20;7.03;;;3.42;;
16977;SDS011;8605;52.548;4.918;2023-07-09T10:08:26;3.53;;;2.27;;
16977;SDS011;8605;52.548;4.918;2023-07-09T10:13:35;3.88;;;2.67;;
16977;SDS011;8605;52.548;4.918;2023-07-09T10:18:46;3.15;;;2.47;;
16977;SDS011;8605;52.548;4.918;2023-07-09T10:23:55;4.25;;;2.40;;
16977;SDS011;8605;52.548;4.918;2023-07-09T10:29:14;4.43;;;2.47;;
16977;SDS011;8605;52.548;4.918;2023-07-09T10:34:31;3.35;;;2.55;;
16977;SDS011;8605;52.548;4.918;2023-07-09T10:39:40;2.63;;;2.38;;
16977;SDS011;8605;52.548;4.918;2023-07-09T10:44:47;3.92;;;2.63;;
16977;SDS011;8605;52.548;4.918;2023-07-09T10:49:57;2.67;;;2.33;;
16977;SDS011;8605;52.548;4.918;2023-07-09T10:55:03;4.73;;;3.30;;
16977;SDS011;8605;52.548;4.918;2023-07-09T11:00:10;3.67;;;3.17;;
16977;SDS011;8605;52.548;4.918;2023-07-09T11:05:16;4.97;;;3.42;;
16977;SDS011;8605;52.548;4.918;2023-07-09T11:10:21;4.97;;;2.88;;
16977;SDS011;8605;52.548;4.918;2023-07-09T11:15:29;4.38;;;2.35;;
16977;SDS011;8605;52.548;4.918;2023-07-09T11:20:36;6.75;;;3.30;;
16977;SDS011;8605;52.548;4.918;2023-07-09T11:25:45;3.63;;;2.90;;
16977;SDS011;8605;52.548;4.918;2023-07-09T11:30:51;4.47;;;3.33;;
16977;SDS011;8605;52.548;4.918;2023-07-09T11:36:07;6.13;;;3.87;;
16977;SDS011;8605;52.548;4.918;2023-07-09T11:46:50;6.70;;;3.37;;
16977;SDS011;8605;52.548;4.918;2023-07-09T11:51:59;3.83;;;2.95;;
16977;SDS011;8605;52.548;4.918;2023-07-09T11:57:07;5.33;;;3.67;;
16977;SDS011;8605;52.548;4.918;2023-07-09T12:02:16;4.57;;;3.10;;
16977;SDS011;8605;52.548;4.918;2023-07-09T12:07:22;4.53;;;3.07;;
16977;SDS011;8605;52.548;4.918;2023-07-09T12:12:27;4.43;;;2.93;;
16977;SDS011;8605;52.548;4.918;2023-07-09T12:17:30;3.63;;;3.30;;
16977;SDS011;8605;52.548;4.918;2023-07-09T12:22:37;3.63;;;3.00;;
16977;SDS011;8605;52.548;4.918;2023-07-09T12:27:42;6.50;;;3.60;;
16977;SDS011;8605;52.548;4.918;2023-07-09T12:32:46;4.53;;;3.15;;
16977;SDS011;8605;52.548;4.918;2023-07-09T12:37:52;4.37;;;3.03;;
16977;SDS011;8605;52.548;4.918;2023-07-09T12:42:58;5.03;;;2.80;;
16977;SDS011;8605;52.548;4.918;2023-07-09T12:48:03;3.95;;;2.25;;
16977;SDS011;8605;52.548;4.918;2023-07-09T12:53:13;4.53;;;2.50;;
16977;SDS011;8605;52.548;4.918;2023-07-09T12:58:18;11.65;;;3.15;;
16977;SDS011;8605;52.548;4.918;2023-07-09T13:03:24;7.75;;;3.30;;
16977;SDS011;8605;52.548;4.918;2023-07-09T13:08:31;8.48;;;4.25;;
16977;SDS011;8605;52.548;4.918;2023-07-09T13:13:35;7.83;;;5.27;;
16977;SDS011;8605;52.548;4.918;2023-07-09T13:18:39;12.52;;;5.45;;
16977;SDS011;8605;52.548;4.918;2023-07-09T13:23:43;13.10;;;4.80;;
16977;SDS011;8605;52.548;4.918;2023-07-09T13:28:48;15.82;;;4.75;;
16977;SDS011;8605;52.548;4.918;2023-07-09T13:33:54;10.25;;;4.75;;
16977;SDS011;8605;52.548;4.918;2023-07-09T13:39:01;6.75;;;3.65;;
16977;SDS011;8605;52.548;4.918;2023-07-09T13:44:04;10.05;;;5.05;;
16977;SDS011;8605;52.548;4.918;2023-07-09T13:49:14;14.63;;;6.60;;
16977;SDS011;8605;52.548;4.918;2023-07-09T13:54:21;10.30;;;6.53;;
16977;SDS011;8605;52.548;4.918;2023-07-09T13:59:26;13.67;;;6.90;;
16977;SDS011;8605;52.548;4.918;2023-07-09T14:04:31;11.32;;;5.93;;
16977;SDS011;8605;52.548;4.918;2023-07-09T14:09:35;13.40;;;6.10;;
16977;SDS011;8605;52.548;4.918;2023-07-09T14:14:38;9.15;;;4.60;;
16977;SDS011;8605;52.548;4.918;2023-07-09T14:19:44;12.02;;;5.65;;
16977;SDS011;8605;52.548;4.918;2023-07-09T14:24:49;9.30;;;5.45;;
16977;SDS011;8605;52.548;4.918;2023-07-09T14:29:52;15.00;;;5.72;;
16977;SDS011;8605;52.548;4.918;2023-07-09T14:34:56;7.63;;;4.88;;
16977;SDS011;8605;52.548;4.918;2023-07-09T14:40:00;9.32;;;5.07;;
16977;SDS011;8605;52.548;4.918;2023-07-09T14:45:15;9.18;;;5.20;;
16977;SDS011;8605;52.548;4.918;2023-07-09T14:50:20;10.63;;;5.07;;
16977;SDS011;8605;52.548;4.918;2023-07-09T14:55:26;9.00;;;4.43;;
16977;SDS011;8605;52.548;4.918;2023-07-09T15:00:30;5.78;;;4.13;;
16977;SDS011;8605;52.548;4.918;2023-07-09T15:05:33;10.23;;;5.03;;
16977;SDS011;8605;52.548;4.918;2023-07-09T15:10:38;8.90;;;4.15;;
16977;SDS011;8605;52.548;4.918;2023-07-09T15:15:41;8.93;;;4.63;;
16977;SDS011;8605;52.548;4.918;2023-07-09T15:20:47;9.50;;;4.53;;
16977;SDS011;8605;52.548;4.918;2023-07-09T15:25:53;8.73;;;4.47;;
16977;SDS011;8605;52.548;4.918;2023-07-09T15:30:57;11.35;;;4.85;;
16977;SDS011;8605;52.548;4.918;2023-07-09T15:36:00;18.08;;;6.30;;
16977;SDS011;8605;52.548;4.918;2023-07-09T15:41:06;11.33;;;4.60;;
16977;SDS011;8605;52.548;4.918;2023-07-09T15:46:09;8.67;;;4.80;;
16977;SDS011;8605;52.548;4.918;2023-07-09T15:51:17;12.68;;;5.35;;
16977;SDS011;8605;52.548;4.918;2023-07-09T15:56:22;8.43;;;5.65;;
16977;SDS011;8605;52.548;4.918;2023-07-09T16:01:28;10.43;;;5.60;;
16977;SDS011;8605;52.548;4.918;2023-07-09T16:06:31;12.40;;;5.88;;
16977;SDS011;8605;52.548;4.918;2023-07-09T16:11:39;9.82;;;5.65;;
16977;SDS011;8605;52.548;4.918;2023-07-09T16:16:44;8.50;;;5.47;;
16977;SDS011;8605;52.548;4.918;2023-07-09T16:21:48;8.50;;;5.65;;
16977;SDS011;8605;52.548;4.918;2023-07-09T16:26:54;8.87;;;5.93;;
16977;SDS011;8605;52.548;4.918;2023-07-09T16:31:57;11.90;;;6.63;;
16977;SDS011;8605;52.548;4.918;2023-07-09T16:37:02;9.50;;;5.70;;
16977;SDS011;8605;52.548;4.918;2023-07-09T16:42:11;10.20;;;6.35;;
16977;SDS011;8605;52.548;4.918;2023-07-09T16:47:15;9.93;;;6.33;;
16977;SDS011;8605;52.548;4.918;2023-07-09T16:52:20;12.38;;;6.85;;
16977;SDS011;8605;52.548;4.918;2023-07-09T16:57:30;12.45;;;6.15;;
16977;SDS011;8605;52.548;4.918;2023-07-09T17:02:34;11.40;;;6.13;;
16977;SDS011;8605;52.548;4.918;2023-07-09T17:07:37;8.13;;;5.32;;
16977;SDS011;8605;52.548;4.918;2023-07-09T17:12:42;8.40;;;5.68;;
16977;SDS011;8605;52.548;4.918;2023-07-09T17:17:45;9.88;;;5.93;;
16977;SDS011;8605;52.548;4.918;2023-07-09T17:22:49;8.13;;;5.90;;
16977;SDS011;8605;52.548;4.918;2023-07-09T17:27:54;8.52;;;5.35;;
16977;SDS011;8605;52.548;4.918;2023-07-09T17:32:58;8.20;;;4.43;;
16977;SDS011;8605;52.548;4.918;2023-07-09T17:38:01;14.87;;;6.10;;
16977;SDS011;8605;52.548;4.918;2023-07-09T17:43:16;10.65;;;6.13;;
16977;SDS011;8605;52.548;4.918;2023-07-09T17:48:22;10.85;;;5.55;;
16977;SDS011;8605;52.548;4.918;2023-07-09T17:53:27;9.77;;;5.70;;
16977;SDS011;8605;52.548;4.918;2023-07-09T17:58:34;9.65;;;5.80;;
16977;SDS011;8605;52.548;4.918;2023-07-09T18:03:38;8.80;;;5.10;;
16977;SDS011;8605;52.548;4.918;2023-07-09T18:08:41;8.52;;;5.38;;
16977;SDS011;8605;52.548;4.918;2023-07-09T18:13:46;8.13;;;5.00;;
16977;SDS011;8605;52.548;4.918;2023-07-09T18:18:50;7.83;;;4.73;;
16977;SDS011;8605;52.548;4.918;2023-07-09T18:23:52;6.45;;;4.45;;
16977;SDS011;8605;52.548;4.918;2023-07-09T18:28:57;13.57;;;4.60;;
16977;SDS011;8605;52.548;4.918;2023-07-09T18:34:00;6.23;;;3.77;;
16977;SDS011;8605;52.548;4.918;2023-07-09T18:39:03;5.53;;;3.05;;
16977;SDS011;8605;52.548;4.918;2023-07-09T18:44:11;10.50;;;3.95;;
16977;SDS011;8605;52.548;4.918;2023-07-09T18:49:18;8.70;;;3.85;;
16977;SDS011;8605;52.548;4.918;2023-07-09T18:54:21;7.50;;;3.38;;
16977;SDS011;8605;52.548;4.918;2023-07-09T18:59:25;4.17;;;3.30;;
16977;SDS011;8605;52.548;4.918;2023-07-09T19:04:32;5.65;;;3.15;;
16977;SDS011;8605;52.548;4.918;2023-07-09T19:09:35;7.07;;;3.38;;
16977;SDS011;8605;52.548;4.918;2023-07-09T19:14:40;8.27;;;3.60;;
16977;SDS011;8605;52.548;4.918;2023-07-09T19:19:43;12.77;;;3.92;;
16977;SDS011;8605;52.548;4.918;2023-07-09T19:24:48;4.65;;;3.22;;
16977;SDS011;8605;52.548;4.918;2023-07-09T19:29:52;10.05;;;3.30;;
16977;SDS011;8605;52.548;4.918;2023-07-09T19:34:55;5.95;;;3.53;;
16977;SDS011;8605;52.548;4.918;2023-07-09T19:39:58;7.67;;;3.17;;
16977;SDS011;8605;52.548;4.918;2023-07-09T19:45:03;7.95;;;3.15;;
16977;SDS011;8605;52.548;4.918;2023-07-09T19:50:11;7.88;;;3.15;;
16977;SDS011;8605;52.548;4.918;2023-07-09T19:55:19;4.72;;;2.70;;
16977;SDS011;8605;52.548;4.918;2023-07-09T20:00:26;7.32;;;2.72;;
16977;SDS011;8605;52.548;4.918;2023-07-09T20:05:29;8.57;;;2.83;;
16977;SDS011;8605;52.548;4.918;2023-07-09T20:10:32;6.53;;;3.20;;
16977;SDS011;8605;52.548;4.918;2023-07-09T20:15:37;4.55;;;2.63;;
16977;SDS011;8605;52.548;4.918;2023-07-09T20:20:40;8.43;;;2.90;;
16977;SDS011;8605;52.548;4.918;2023-07-09T20:25:44;8.20;;;3.10;;
16977;SDS011;8605;52.548;4.918;2023-07-09T20:30:49;8.05;;;3.10;;
16977;SDS011;8605;52.548;4.918;2023-07-09T20:35:53;7.93;;;3.13;;
16977;SDS011;8605;52.548;4.918;2023-07-09T20:40:56;6.78;;;2.30;;
16977;SDS011;8605;52.548;4.918;2023-07-09T20:46:02;5.37;;;2.80;;
16977;SDS011;8605;52.548;4.918;2023-07-09T20:51:05;7.60;;;3.17;;
16977;SDS011;8605;52.548;4.918;2023-07-09T20:56:10;8.35;;;3.03;;
16977;SDS011;8605;52.548;4.918;2023-07-09T21:01:17;5.40;;;2.38;;
16977;SDS011;8605;52.548;4.918;2023-07-09T21:06:20;6.18;;;2.13;;
16977;SDS011;8605;52.548;4.918;2023-07-09T21:11:23;3.97;;;2.20;;
16977;SDS011;8605;52.548;4.918;2023-07-09T21:16:28;3.83;;;2.17;;
16977;SDS011;8605;52.548;4.918;2023-07-09T21:21:31;5.72;;;2.10;;
16977;SDS011;8605;52.548;4.918;2023-07-09T21:26:34;6.07;;;2.17;;
16977;SDS011;8605;52.548;4.918;2023-07-09T21:31:38;6.60;;;2.13;;
16977;SDS011;8605;52.548;4.918;2023-07-09T21:36:41;4.87;;;1.70;;
16977;SDS011;8605;52.548;4.918;2023-07-09T21:41:44;4.20;;;2.00;;
16977;SDS011;8605;52.548;4.918;2023-07-09T21:46:51;2.60;;;1.70;;
16977;SDS011;8605;52.548;4.918;2023-07-09T21:51:55;6.90;;;2.40;;
16977;SDS011;8605;52.548;4.918;2023-07-09T21:56:58;4.30;;;2.23;;
16977;SDS011;8605;52.548;4.918;2023-07-09T22:02:04;4.80;;;2.25;;
16977;SDS011;8605;52.548;4.918;2023-07-09T22:07:11;4.47;;;2.00;;
16977;SDS011;8605;52.548;4.918;2023-07-09T22:12:15;5.40;;;1.90;;
16977;SDS011;8605;52.548;4.918;2023-07-09T22:17:23;2.20;;;1.60;;
16977;SDS011;8605;52.548;4.918;2023-07-09T22:22:28;2.80;;;1.90;;
16977;SDS011;8605;52.548;4.918;2023-07-09T22:27:31;5.38;;;2.03;;
16977;SDS011;8605;52.548;4.918;2023-07-09T22:32:36;2.40;;;1.90;;
16977;SDS011;8605;52.548;4.918;2023-07-09T22:37:39;3.63;;;1.53;;
16977;SDS011;8605;52.548;4.918;2023-07-09T22:42:43;3.88;;;1.73;;
16977;SDS011;8605;52.548;4.918;2023-07-09T22:47:48;5.30;;;1.73;;
16977;SDS011;8605;52.548;4.918;2023-07-09T22:52:54;4.80;;;1.70;;
16977;SDS011;8605;52.548;4.918;2023-07-09T22:57:57;7.38;;;2.45;;
16977;SDS011;8605;52.548;4.918;2023-07-09T23:03:05;2.95;;;1.90;;
16977;SDS011;8605;52.548;4.918;2023-07-09T23:08:23;5.87;;;2.57;;
16977;SDS011;8605;52.548;4.918;2023-07-09T23:13:28;2.63;;;1.75;;
16977;SDS011;8605;52.548;4.918;2023-07-09T23:18:35;4.82;;;2.30;;
16977;SDS011;8605;52.548;4.918;2023-07-09T23:23:38;5.60;;;2.05;;
16977;SDS011;8605;52.548;4.918;2023-07-09T23:28:41;5.30;;;2.10;;
16977;SDS011;8605;52.548;4.918;2023-07-09T23:33:45;8.20;;;2.40;;
16977;SDS011;8605;52.548;4.918;2023-07-09T23:38:48;5.83;;;2.50;;
16977;SDS011;8605;52.548;4.918;2023-07-09T23:43:51;5.23;;;2.20;;
16977;SDS011;8605;52.548;4.918;2023-07-09T23:48:56;4.78;;;2.58;;
16977;SDS011;8605;52.548;4.918;2023-07-09T23:54:10;4.75;;;1.98;;
16977;SDS011;8605;52.548;4.918;2023-07-09T23:59:13;4.88;;;2.10;;
